sensor_id;sensor_type;location;lat;lon;timestamp;temperature;humidity
66373;SHT30;53168;51.146;17.120;2023-07-30T00:00:38;17.11;75.39
66373;SHT30;53168;51.146;17.120;2023-07-30T00:03:32;17.10;75.48
66373;SHT30;53168;51.146;17.120;2023-07-30T00:06:06;17.07;75.52
66373;SHT30;53168;51.146;17.120;2023-07-30T00:08:39;17.04;75.62
66373;SHT30;53168;51.146;17.120;2023-07-30T00:11:13;17.03;75.68
66373;SHT30;53168;51.146;17.120;2023-07-30T00:13:47;17.01;75.69
66373;SHT30;53168;51.146;17.120;2023-07-30T00:16:20;16.99;75.70
66373;SHT30;53168;51.146;17.120;2023-07-30T00:18:54;16.99;75.80
66373;SHT30;53168;51.146;17.120;2023-07-30T00:21:28;16.97;75.80
66373;SHT30;53168;51.146;17.120;2023-07-30T00:24:02;16.96;75.85
66373;SHT30;53168;51.146;17.120;2023-07-30T00:26:36;16.94;75.90
66373;SHT30;53168;51.146;17.120;2023-07-30T00:29:10;16.94;75.90
66373;SHT30;53168;51.146;17.120;2023-07-30T00:31:43;16.92;75.98
66373;SHT30;53168;51.146;17.120;2023-07-30T00:34:17;16.91;76.00
66373;SHT30;53168;51.146;17.120;2023-07-30T00:36:51;16.90;76.03
66373;SHT30;53168;51.146;17.120;2023-07-30T00:39:25;16.88;76.14
66373;SHT30;53168;51.146;17.120;2023-07-30T00:41:59;16.88;76.19
66373;SHT30;53168;51.146;17.120;2023-07-30T00:44:34;16.86;76.19
66373;SHT30;53168;51.146;17.120;2023-07-30T00:47:08;16.83;76.28
66373;SHT30;53168;51.146;17.120;2023-07-30T00:49:43;16.79;76.32
66373;SHT30;53168;51.146;17.120;2023-07-30T00:52:20;16.75;76.41
66373;SHT30;53168;51.146;17.120;2023-07-30T00:54:55;16.73;76.53
66373;SHT30;53168;51.146;17.120;2023-07-30T00:57:31;16.73;76.56
66373;SHT30;53168;51.146;17.120;2023-07-30T01:00:07;16.72;76.54
66373;SHT30;53168;51.146;17.120;2023-07-30T01:02:42;16.69;76.59
66373;SHT30;53168;51.146;17.120;2023-07-30T01:05:16;16.68;76.60
66373;SHT30;53168;51.146;17.120;2023-07-30T01:07:50;16.67;76.57
66373;SHT30;53168;51.146;17.120;2023-07-30T01:10:24;16.66;76.66
66373;SHT30;53168;51.146;17.120;2023-07-30T01:13:00;16.65;76.69
66373;SHT30;53168;51.146;17.120;2023-07-30T01:15:35;16.67;76.70
66373;SHT30;53168;51.146;17.120;2023-07-30T01:18:09;16.67;76.70
66373;SHT30;53168;51.146;17.120;2023-07-30T01:20:43;16.67;76.68
66373;SHT30;53168;51.146;17.120;2023-07-30T01:23:16;16.67;76.66
66373;SHT30;53168;51.146;17.120;2023-07-30T01:25:59;16.68;76.67
66373;SHT30;53168;51.146;17.120;2023-07-30T01:28:42;16.67;76.62
66373;SHT30;53168;51.146;17.120;2023-07-30T01:31:21;16.66;76.70
66373;SHT30;53168;51.146;17.120;2023-07-30T01:33:59;16.65;76.77
66373;SHT30;53168;51.146;17.120;2023-07-30T01:36:36;16.64;76.83
66373;SHT30;53168;51.146;17.120;2023-07-30T01:39:13;16.61;76.90
66373;SHT30;53168;51.146;17.120;2023-07-30T01:41:47;16.60;76.90
66373;SHT30;53168;51.146;17.120;2023-07-30T01:44:21;16.57;76.98
66373;SHT30;53168;51.146;17.120;2023-07-30T01:46:55;16.55;77.00
66373;SHT30;53168;51.146;17.120;2023-07-30T01:49:28;16.52;77.03
66373;SHT30;53168;51.146;17.120;2023-07-30T01:52:02;16.50;77.10
66373;SHT30;53168;51.146;17.120;2023-07-30T01:54:37;16.47;77.10
66373;SHT30;53168;51.146;17.120;2023-07-30T01:57:10;16.44;77.10
66373;SHT30;53168;51.146;17.120;2023-07-30T01:59:44;16.40;77.16
66373;SHT30;53168;51.146;17.120;2023-07-30T02:02:18;16.38;77.25
66373;SHT30;53168;51.146;17.120;2023-07-30T02:04:52;16.36;77.29
66373;SHT30;53168;51.146;17.120;2023-07-30T02:07:25;16.32;77.30
66373;SHT30;53168;51.146;17.120;2023-07-30T02:10:01;16.29;77.41
66373;SHT30;53168;51.146;17.120;2023-07-30T02:12:38;16.25;77.47
66373;SHT30;53168;51.146;17.120;2023-07-30T02:15:11;16.23;77.52
66373;SHT30;53168;51.146;17.120;2023-07-30T02:17:45;16.22;77.60
66373;SHT30;53168;51.146;17.120;2023-07-30T02:20:19;16.20;77.59
66373;SHT30;53168;51.146;17.120;2023-07-30T02:22:53;16.20;77.69
66373;SHT30;53168;51.146;17.120;2023-07-30T02:25:26;16.21;77.79
66373;SHT30;53168;51.146;17.120;2023-07-30T02:28:02;16.21;77.83
66373;SHT30;53168;51.146;17.120;2023-07-30T02:30:36;16.20;77.90
66373;SHT30;53168;51.146;17.120;2023-07-30T02:33:09;16.20;77.97
66373;SHT30;53168;51.146;17.120;2023-07-30T02:35:44;16.18;78.00
66373;SHT30;53168;51.146;17.120;2023-07-30T02:44:32;16.13;78.11
66373;SHT30;53168;51.146;17.120;2023-07-30T02:47:06;16.12;78.10
66373;SHT30;53168;51.146;17.120;2023-07-30T02:49:40;16.09;78.15
66373;SHT30;53168;51.146;17.120;2023-07-30T02:52:14;16.07;78.20
66373;SHT30;53168;51.146;17.120;2023-07-30T02:54:48;16.07;78.17
66373;SHT30;53168;51.146;17.120;2023-07-30T02:57:22;16.03;78.17
66373;SHT30;53168;51.146;17.120;2023-07-30T02:59:56;16.00;78.37
66373;SHT30;53168;51.146;17.120;2023-07-30T03:02:29;15.96;78.53
66373;SHT30;53168;51.146;17.120;2023-07-30T03:05:04;15.95;78.59
66373;SHT30;53168;51.146;17.120;2023-07-30T03:07:39;15.95;78.64
66373;SHT30;53168;51.146;17.120;2023-07-30T03:10:13;15.94;78.72
66373;SHT30;53168;51.146;17.120;2023-07-30T03:12:47;15.93;78.77
66373;SHT30;53168;51.146;17.120;2023-07-30T03:15:20;15.94;78.80
66373;SHT30;53168;51.146;17.120;2023-07-30T03:17:54;15.97;78.78
66373;SHT30;53168;51.146;17.120;2023-07-30T03:20:28;16.00;78.76
66373;SHT30;53168;51.146;17.120;2023-07-30T03:23:02;16.01;78.72
66373;SHT30;53168;51.146;17.120;2023-07-30T03:25:35;16.02;78.73
66373;SHT30;53168;51.146;17.120;2023-07-30T03:28:09;16.06;78.75
66373;SHT30;53168;51.146;17.120;2023-07-30T03:30:42;16.09;78.78
66373;SHT30;53168;51.146;17.120;2023-07-30T03:33:16;16.14;78.80
66373;SHT30;53168;51.146;17.120;2023-07-30T03:35:49;16.18;78.79
66373;SHT30;53168;51.146;17.120;2023-07-30T03:38:24;16.27;78.75
66373;SHT30;53168;51.146;17.120;2023-07-30T03:40:57;16.32;78.71
66373;SHT30;53168;51.146;17.120;2023-07-30T03:43:31;16.35;78.62
66373;SHT30;53168;51.146;17.120;2023-07-30T03:46:05;16.38;78.57
66373;SHT30;53168;51.146;17.120;2023-07-30T03:48:39;16.41;78.52
66373;SHT30;53168;51.146;17.120;2023-07-30T03:51:12;16.43;78.50
66373;SHT30;53168;51.146;17.120;2023-07-30T03:53:46;16.46;78.49
66373;SHT30;53168;51.146;17.120;2023-07-30T03:56:20;16.50;78.40
66373;SHT30;53168;51.146;17.120;2023-07-30T03:58:54;16.51;78.40
66373;SHT30;53168;51.146;17.120;2023-07-30T04:01:28;16.51;78.40
66373;SHT30;53168;51.146;17.120;2023-07-30T04:04:02;16.55;78.40
66373;SHT30;53168;51.146;17.120;2023-07-30T04:06:36;16.58;78.40
66373;SHT30;53168;51.146;17.120;2023-07-30T04:09:10;16.62;78.40
66373;SHT30;53168;51.146;17.120;2023-07-30T04:11:43;16.64;78.40
66373;SHT30;53168;51.146;17.120;2023-07-30T04:14:17;16.67;78.38
66373;SHT30;53168;51.146;17.120;2023-07-30T04:16:51;16.69;78.35
66373;SHT30;53168;51.146;17.120;2023-07-30T04:19:24;16.71;78.30
66373;SHT30;53168;51.146;17.120;2023-07-30T04:21:58;16.74;78.30
66373;SHT30;53168;51.146;17.120;2023-07-30T04:24:32;16.77;78.31
66373;SHT30;53168;51.146;17.120;2023-07-30T04:27:06;16.79;78.24
66373;SHT30;53168;51.146;17.120;2023-07-30T04:29:40;16.82;78.21
66373;SHT30;53168;51.146;17.120;2023-07-30T04:32:13;16.83;78.20
66373;SHT30;53168;51.146;17.120;2023-07-30T04:34:48;16.85;78.29
66373;SHT30;53168;51.146;17.120;2023-07-30T04:37:21;16.89;78.34
66373;SHT30;53168;51.146;17.120;2023-07-30T04:39:56;16.97;78.30
66373;SHT30;53168;51.146;17.120;2023-07-30T04:42:33;17.07;78.27
66373;SHT30;53168;51.146;17.120;2023-07-30T04:45:09;17.17;78.19
66373;SHT30;53168;51.146;17.120;2023-07-30T04:47:46;17.24;78.18
66373;SHT30;53168;51.146;17.120;2023-07-30T04:50:20;17.33;78.09
66373;SHT30;53168;51.146;17.120;2023-07-30T04:52:54;17.43;78.00
66373;SHT30;53168;51.146;17.120;2023-07-30T04:55:28;17.53;77.88
66373;SHT30;53168;51.146;17.120;2023-07-30T04:58:01;17.61;77.79
66373;SHT30;53168;51.146;17.120;2023-07-30T05:00:35;17.68;77.75
66373;SHT30;53168;51.146;17.120;2023-07-30T05:03:09;17.76;77.72
66373;SHT30;53168;51.146;17.120;2023-07-30T05:05:43;17.83;77.71
66373;SHT30;53168;51.146;17.120;2023-07-30T05:08:16;17.91;77.57
66373;SHT30;53168;51.146;17.120;2023-07-30T05:10:50;17.99;77.52
66373;SHT30;53168;51.146;17.120;2023-07-30T05:13:24;18.11;77.39
66373;SHT30;53168;51.146;17.120;2023-07-30T05:15:57;18.26;77.23
66373;SHT30;53168;51.146;17.120;2023-07-30T05:18:32;18.38;77.01
66373;SHT30;53168;51.146;17.120;2023-07-30T05:21:06;18.46;76.83
66373;SHT30;53168;51.146;17.120;2023-07-30T05:23:40;18.51;76.80
66373;SHT30;53168;51.146;17.120;2023-07-30T05:26:13;18.61;76.80
66373;SHT30;53168;51.146;17.120;2023-07-30T05:28:47;18.70;76.54
66373;SHT30;53168;51.146;17.120;2023-07-30T05:31:21;18.78;76.51
66373;SHT30;53168;51.146;17.120;2023-07-30T05:33:54;18.91;76.50
66373;SHT30;53168;51.146;17.120;2023-07-30T05:36:28;19.04;76.43
66373;SHT30;53168;51.146;17.120;2023-07-30T05:39:02;19.12;76.23
66373;SHT30;53168;51.146;17.120;2023-07-30T05:41:36;19.24;76.25
66373;SHT30;53168;51.146;17.120;2023-07-30T05:44:10;19.36;76.11
66373;SHT30;53168;51.146;17.120;2023-07-30T05:46:44;19.49;75.73
66373;SHT30;53168;51.146;17.120;2023-07-30T05:49:18;19.58;75.68
66373;SHT30;53168;51.146;17.120;2023-07-30T05:51:52;19.70;75.57
66373;SHT30;53168;51.146;17.120;2023-07-30T05:54:26;19.82;75.37
66373;SHT30;53168;51.146;17.120;2023-07-30T05:56:59;19.92;75.10
66373;SHT30;53168;51.146;17.120;2023-07-30T05:59:33;20.00;74.13
66373;SHT30;53168;51.146;17.120;2023-07-30T06:02:07;20.08;74.01
66373;SHT30;53168;51.146;17.120;2023-07-30T06:04:40;20.19;73.85
66373;SHT30;53168;51.146;17.120;2023-07-30T06:07:14;20.27;73.59
66373;SHT30;53168;51.146;17.120;2023-07-30T06:09:48;20.34;73.29
66373;SHT30;53168;51.146;17.120;2023-07-30T06:12:21;20.40;72.69
66373;SHT30;53168;51.146;17.120;2023-07-30T06:14:55;20.47;72.72
66373;SHT30;53168;51.146;17.120;2023-07-30T06:17:29;20.55;72.46
66373;SHT30;53168;51.146;17.120;2023-07-30T06:20:05;20.62;72.09
66373;SHT30;53168;51.146;17.120;2023-07-30T06:22:41;20.62;71.73
66373;SHT30;53168;51.146;17.120;2023-07-30T06:25:19;20.62;71.49
66373;SHT30;53168;51.146;17.120;2023-07-30T06:27:53;20.66;71.56
66373;SHT30;53168;51.146;17.120;2023-07-30T06:30:29;20.72;71.64
66373;SHT30;53168;51.146;17.120;2023-07-30T06:33:03;20.83;71.50
66373;SHT30;53168;51.146;17.120;2023-07-30T06:35:37;20.93;71.32
66373;SHT30;53168;51.146;17.120;2023-07-30T06:38:11;21.06;71.33
66373;SHT30;53168;51.146;17.120;2023-07-30T06:40:45;21.20;70.92
66373;SHT30;53168;51.146;17.120;2023-07-30T06:43:18;21.25;70.60
66373;SHT30;53168;51.146;17.120;2023-07-30T06:45:53;21.35;70.74
66373;SHT30;53168;51.146;17.120;2023-07-30T06:48:27;21.44;70.37
66373;SHT30;53168;51.146;17.120;2023-07-30T06:51:01;21.50;70.12
66373;SHT30;53168;51.146;17.120;2023-07-30T06:53:38;21.56;70.16
66373;SHT30;53168;51.146;17.120;2023-07-30T06:56:15;21.59;69.54
66373;SHT30;53168;51.146;17.120;2023-07-30T06:58:50;21.67;69.81
66373;SHT30;53168;51.146;17.120;2023-07-30T07:01:24;21.77;69.29
66373;SHT30;53168;51.146;17.120;2023-07-30T07:03:58;21.82;69.25
66373;SHT30;53168;51.146;17.120;2023-07-30T07:06:32;21.86;68.85
66373;SHT30;53168;51.146;17.120;2023-07-30T07:09:08;21.90;68.79
66373;SHT30;53168;51.146;17.120;2023-07-30T07:11:41;21.94;68.92
66373;SHT30;53168;51.146;17.120;2023-07-30T07:14:16;22.06;68.97
66373;SHT30;53168;51.146;17.120;2023-07-30T07:16:57;22.19;68.82
66373;SHT30;53168;51.146;17.120;2023-07-30T07:19:39;22.34;68.78
66373;SHT30;53168;51.146;17.120;2023-07-30T07:22:30;22.47;68.29
66373;SHT30;53168;51.146;17.120;2023-07-30T07:25:07;22.53;67.94
66373;SHT30;53168;51.146;17.120;2023-07-30T07:27:48;22.62;67.82
66373;SHT30;53168;51.146;17.120;2023-07-30T07:41:37;23.02;66.55
66373;SHT30;53168;51.146;17.120;2023-07-30T07:44:15;23.08;66.74
66373;SHT30;53168;51.146;17.120;2023-07-30T07:47:02;23.23;66.77
66373;SHT30;53168;51.146;17.120;2023-07-30T07:49:42;23.42;66.24
66373;SHT30;53168;51.146;17.120;2023-07-30T07:52:21;23.50;65.83
66373;SHT30;53168;51.146;17.120;2023-07-30T07:55:03;23.49;65.09
66373;SHT30;53168;51.146;17.120;2023-07-30T07:58:04;23.47;65.19
66373;SHT30;53168;51.146;17.120;2023-07-30T08:00:38;23.54;65.27
66373;SHT30;53168;51.146;17.120;2023-07-30T08:03:16;23.66;65.14
66373;SHT30;53168;51.146;17.120;2023-07-30T08:05:50;23.73;64.69
66373;SHT30;53168;51.146;17.120;2023-07-30T08:08:32;23.78;64.69
66373;SHT30;53168;51.146;17.120;2023-07-30T08:11:08;23.85;64.64
66373;SHT30;53168;51.146;17.120;2023-07-30T08:13:42;23.97;64.70
66373;SHT30;53168;51.146;17.120;2023-07-30T08:16:17;24.15;64.53
66373;SHT30;53168;51.146;17.120;2023-07-30T08:18:51;24.24;63.85
66373;SHT30;53168;51.146;17.120;2023-07-30T08:21:26;24.28;63.75
66373;SHT30;53168;51.146;17.120;2023-07-30T08:24:00;24.34;63.37
66373;SHT30;53168;51.146;17.120;2023-07-30T08:26:35;24.35;63.00
66373;SHT30;53168;51.146;17.120;2023-07-30T08:29:09;24.38;63.01
66373;SHT30;53168;51.146;17.120;2023-07-30T08:31:45;24.47;62.65
66373;SHT30;53168;51.146;17.120;2023-07-30T09:16:59;26.51;58.56
66373;SHT30;53168;51.146;17.120;2023-07-30T09:19:36;26.65;57.36
66373;SHT30;53168;51.146;17.120;2023-07-30T09:22:10;26.67;57.47
66373;SHT30;53168;51.146;17.120;2023-07-30T09:24:46;26.77;57.47
66373;SHT30;53168;51.146;17.120;2023-07-30T09:27:47;26.88;56.77
66373;SHT30;53168;51.146;17.120;2023-07-30T09:30:29;26.79;56.07
66373;SHT30;53168;51.146;17.120;2023-07-30T09:37:38;26.43;56.04
66373;SHT30;53168;51.146;17.120;2023-07-30T09:40:19;26.39;55.66
66373;SHT30;53168;51.146;17.120;2023-07-30T09:43:04;26.23;55.20
66373;SHT30;53168;51.146;17.120;2023-07-30T09:45:38;26.15;55.37
66373;SHT30;53168;51.146;17.120;2023-07-30T09:48:13;26.27;55.04
66373;SHT30;53168;51.146;17.120;2023-07-30T09:50:47;26.38;54.40
66373;SHT30;53168;51.146;17.120;2023-07-30T09:53:22;26.54;54.50
66373;SHT30;53168;51.146;17.120;2023-07-30T09:56:00;26.74;54.41
66373;SHT30;53168;51.146;17.120;2023-07-30T09:58:35;26.98;54.39
66373;SHT30;53168;51.146;17.120;2023-07-30T10:01:14;27.22;53.78
66373;SHT30;53168;51.146;17.120;2023-07-30T10:03:51;27.30;53.14
66373;SHT30;53168;51.146;17.120;2023-07-30T10:06:32;27.40;53.05
66373;SHT30;53168;51.146;17.120;2023-07-30T10:09:12;27.53;52.99
66373;SHT30;53168;51.146;17.120;2023-07-30T10:11:50;27.79;52.61
66373;SHT30;53168;51.146;17.120;2023-07-30T10:14:27;27.98;52.70
66373;SHT30;53168;51.146;17.120;2023-07-30T10:17:02;27.99;52.33
66373;SHT30;53168;51.146;17.120;2023-07-30T10:19:38;27.78;52.12
66373;SHT30;53168;51.146;17.120;2023-07-30T10:22:24;27.54;52.07
66373;SHT30;53168;51.146;17.120;2023-07-30T10:25:00;27.39;51.88
66373;SHT30;53168;51.146;17.120;2023-07-30T10:27:40;27.23;51.97
66373;SHT30;53168;51.146;17.120;2023-07-30T10:30:19;27.16;52.26
66373;SHT30;53168;51.146;17.120;2023-07-30T10:33:04;27.14;51.80
66373;SHT30;53168;51.146;17.120;2023-07-30T10:35:46;27.03;51.65
66373;SHT30;53168;51.146;17.120;2023-07-30T10:38:21;26.92;51.70
66373;SHT30;53168;51.146;17.120;2023-07-30T10:41:06;26.77;51.65
66373;SHT30;53168;51.146;17.120;2023-07-30T10:43:45;26.57;51.98
66373;SHT30;53168;51.146;17.120;2023-07-30T10:46:20;26.42;52.30
66373;SHT30;53168;51.146;17.120;2023-07-30T10:48:56;26.26;52.09
66373;SHT30;53168;51.146;17.120;2023-07-30T10:51:29;25.94;52.52
66373;SHT30;53168;51.146;17.120;2023-07-30T10:54:07;25.53;54.54
66373;SHT30;53168;51.146;17.120;2023-07-30T10:56:46;24.51;56.91
66373;SHT30;53168;51.146;17.120;2023-07-30T10:59:20;23.75;58.47
66373;SHT30;53168;51.146;17.120;2023-07-30T11:01:55;23.33;59.43
66373;SHT30;53168;51.146;17.120;2023-07-30T11:04:33;23.15;60.48
66373;SHT30;53168;51.146;17.120;2023-07-30T11:07:07;23.16;61.12
66373;SHT30;53168;51.146;17.120;2023-07-30T11:09:59;23.25;61.58
66373;SHT30;53168;51.146;17.120;2023-07-30T11:12:36;23.29;61.96
66373;SHT30;53168;51.146;17.120;2023-07-30T11:15:14;23.45;62.07
66373;SHT30;53168;51.146;17.120;2023-07-30T11:17:48;23.61;61.86
66373;SHT30;53168;51.146;17.120;2023-07-30T11:20:29;23.84;62.03
66373;SHT30;53168;51.146;17.120;2023-07-30T11:23:03;24.26;62.08
66373;SHT30;53168;51.146;17.120;2023-07-30T11:25:52;24.84;62.28
66373;SHT30;53168;51.146;17.120;2023-07-30T11:28:31;25.16;61.31
66373;SHT30;53168;51.146;17.120;2023-07-30T11:31:10;25.38;61.06
66373;SHT30;53168;51.146;17.120;2023-07-30T11:33:46;25.52;60.82
66373;SHT30;53168;51.146;17.120;2023-07-30T11:36:24;25.73;60.64
66373;SHT30;53168;51.146;17.120;2023-07-30T11:39:01;26.10;60.27
66373;SHT30;53168;51.146;17.120;2023-07-30T11:41:36;26.63;60.18
66373;SHT30;53168;51.146;17.120;2023-07-30T11:44:30;27.09;59.51
66373;SHT30;53168;51.146;17.120;2023-07-30T11:47:07;27.25;58.69
66373;SHT30;53168;51.146;17.120;2023-07-30T11:49:42;27.08;58.63
66373;SHT30;53168;51.146;17.120;2023-07-30T11:52:36;26.80;57.69
66373;SHT30;53168;51.146;17.120;2023-07-30T11:55:37;26.28;57.47
66373;SHT30;53168;51.146;17.120;2023-07-30T11:58:21;25.95;58.00
66373;SHT30;53168;51.146;17.120;2023-07-30T12:01:01;25.71;57.93
66373;SHT30;53168;51.146;17.120;2023-07-30T12:03:35;25.48;57.68
66373;SHT30;53168;51.146;17.120;2023-07-30T12:06:13;25.20;57.83
66373;SHT30;53168;51.146;17.120;2023-07-30T12:09:02;24.96;57.96
66373;SHT30;53168;51.146;17.120;2023-07-30T12:11:58;24.68;58.22
66373;SHT30;53168;51.146;17.120;2023-07-30T12:14:52;24.43;58.38
66373;SHT30;53168;51.146;17.120;2023-07-30T12:17:30;24.15;58.72
66373;SHT30;53168;51.146;17.120;2023-07-30T12:20:04;23.91;59.21
66373;SHT30;53168;51.146;17.120;2023-07-30T12:22:39;23.73;59.82
66373;SHT30;53168;51.146;17.120;2023-07-30T12:25:17;23.64;60.12
66373;SHT30;53168;51.146;17.120;2023-07-30T12:27:53;23.59;60.32
66373;SHT30;53168;51.146;17.120;2023-07-30T12:30:27;23.57;60.46
66373;SHT30;53168;51.146;17.120;2023-07-30T12:33:07;23.65;60.50
66373;SHT30;53168;51.146;17.120;2023-07-30T12:35:43;23.76;60.37
66373;SHT30;53168;51.146;17.120;2023-07-30T12:38:18;23.99;60.28
66373;SHT30;53168;51.146;17.120;2023-07-30T12:40:52;24.33;59.96
66373;SHT30;53168;51.146;17.120;2023-07-30T12:43:26;24.55;59.68
66373;SHT30;53168;51.146;17.120;2023-07-30T12:46:00;24.70;59.52
66373;SHT30;53168;51.146;17.120;2023-07-30T12:48:33;24.77;59.17
66373;SHT30;53168;51.146;17.120;2023-07-30T12:51:08;24.79;58.98
66373;SHT30;53168;51.146;17.120;2023-07-30T12:57:28;24.93;59.02
66373;SHT30;53168;51.146;17.120;2023-07-30T13:00:14;24.96;59.27
66373;SHT30;53168;51.146;17.120;2023-07-30T13:27:09;25.49;57.39
66373;SHT30;53168;51.146;17.120;2023-07-30T13:29:44;26.20;56.60
66373;SHT30;53168;51.146;17.120;2023-07-30T13:33:46;27.55;55.37
66373;SHT30;53168;51.146;17.120;2023-07-30T13:36:20;28.28;54.11
66373;SHT30;53168;51.146;17.120;2023-07-30T13:38:56;28.74;53.07
66373;SHT30;53168;51.146;17.120;2023-07-30T13:41:30;29.22;53.00
66373;SHT30;53168;51.146;17.120;2023-07-30T13:44:04;29.66;51.62
66373;SHT30;53168;51.146;17.120;2023-07-30T13:46:37;29.94;50.68
66373;SHT30;53168;51.146;17.120;2023-07-30T13:49:12;30.25;50.10
66373;SHT30;53168;51.146;17.120;2023-07-30T13:51:45;30.47;50.07
66373;SHT30;53168;51.146;17.120;2023-07-30T13:54:19;30.81;49.67
66373;SHT30;53168;51.146;17.120;2023-07-30T13:56:53;31.23;49.55
66373;SHT30;53168;51.146;17.120;2023-07-30T13:59:27;31.68;48.58
66373;SHT30;53168;51.146;17.120;2023-07-30T14:02:01;31.96;48.28
66373;SHT30;53168;51.146;17.120;2023-07-30T14:04:36;31.94;47.70
66373;SHT30;53168;51.146;17.120;2023-07-30T14:07:13;31.96;47.75
66373;SHT30;53168;51.146;17.120;2023-07-30T14:09:52;32.30;47.41
66373;SHT30;53168;51.146;17.120;2023-07-30T14:12:28;32.55;46.30
66373;SHT30;53168;51.146;17.120;2023-07-30T14:15:12;32.86;46.84
66373;SHT30;53168;51.146;17.120;2023-07-30T14:17:53;33.27;45.64
66373;SHT30;53168;51.146;17.120;2023-07-30T14:21:29;33.32;44.91
66373;SHT30;53168;51.146;17.120;2023-07-30T15:09:20;25.52;50.56
66373;SHT30;53168;51.146;17.120;2023-07-30T15:11:57;25.33;51.06
66373;SHT30;53168;51.146;17.120;2023-07-30T15:14:32;25.00;51.72
66373;SHT30;53168;51.146;17.120;2023-07-30T15:17:39;24.55;52.27
66373;SHT30;53168;51.146;17.120;2023-07-30T15:20:12;24.21;52.79
66373;SHT30;53168;51.146;17.120;2023-07-30T15:22:42;23.78;52.85
66373;SHT30;53168;51.146;17.120;2023-07-30T15:25:12;23.43;53.23
66373;SHT30;53168;51.146;17.120;2023-07-30T15:27:42;23.12;53.89
66373;SHT30;53168;51.146;17.120;2023-07-30T15:30:12;22.75;54.78
66373;SHT30;53168;51.146;17.120;2023-07-30T15:32:44;22.34;56.04
66373;SHT30;53168;51.146;17.120;2023-07-30T15:35:14;21.89;57.25
66373;SHT30;53168;51.146;17.120;2023-07-30T15:37:45;21.49;58.74
66373;SHT30;53168;51.146;17.120;2023-07-30T15:40:16;21.15;59.72
66373;SHT30;53168;51.146;17.120;2023-07-30T15:42:46;20.86;60.70
66373;SHT30;53168;51.146;17.120;2023-07-30T15:45:16;20.66;61.80
66373;SHT30;53168;51.146;17.120;2023-07-30T15:47:46;20.51;63.15
66373;SHT30;53168;51.146;17.120;2023-07-30T15:50:17;20.34;63.86
66373;SHT30;53168;51.146;17.120;2023-07-30T15:52:50;20.15;64.48
66373;SHT30;53168;51.146;17.120;2023-07-30T15:55:21;20.01;65.50
66373;SHT30;53168;51.146;17.120;2023-07-30T15:57:51;19.86;65.67
66373;SHT30;53168;51.146;17.120;2023-07-30T16:00:22;19.78;66.17
66373;SHT30;53168;51.146;17.120;2023-07-30T16:02:52;19.75;65.71
66373;SHT30;53168;51.146;17.120;2023-07-30T16:05:22;19.80;66.17
66373;SHT30;53168;51.146;17.120;2023-07-30T16:07:52;19.79;66.85
66373;SHT30;53168;51.146;17.120;2023-07-30T16:10:24;19.79;66.91
66373;SHT30;53168;51.146;17.120;2023-07-30T16:12:54;19.83;67.15
66373;SHT30;53168;51.146;17.120;2023-07-30T16:15:27;19.88;67.16
66373;SHT30;53168;51.146;17.120;2023-07-30T16:17:57;19.97;67.12
66373;SHT30;53168;51.146;17.120;2023-07-30T16:23:47;20.30;67.20
66373;SHT30;53168;51.146;17.120;2023-07-30T16:26:29;20.37;66.96
66373;SHT30;53168;51.146;17.120;2023-07-30T16:28:58;20.47;66.95
66373;SHT30;53168;51.146;17.120;2023-07-30T16:31:43;20.54;66.88
66373;SHT30;53168;51.146;17.120;2023-07-30T16:34:13;20.61;67.17
66373;SHT30;53168;51.146;17.120;2023-07-30T16:36:42;20.65;67.03
66373;SHT30;53168;51.146;17.120;2023-07-30T16:39:28;20.67;66.87
66373;SHT30;53168;51.146;17.120;2023-07-30T16:41:58;20.73;66.79
66373;SHT30;53168;51.146;17.120;2023-07-30T16:44:30;20.81;66.52
66373;SHT30;53168;51.146;17.120;2023-07-30T16:47:00;20.91;66.60
66373;SHT30;53168;51.146;17.120;2023-07-30T16:49:30;20.95;66.58
66373;SHT30;53168;51.146;17.120;2023-07-30T16:52:01;20.97;66.59
66373;SHT30;53168;51.146;17.120;2023-07-30T16:54:32;21.04;66.66
66373;SHT30;53168;51.146;17.120;2023-07-30T16:57:14;21.14;66.70
66373;SHT30;53168;51.146;17.120;2023-07-30T16:59:50;21.25;66.68
66373;SHT30;53168;51.146;17.120;2023-07-30T17:02:22;21.34;66.99
66373;SHT30;53168;51.146;17.120;2023-07-30T17:04:52;21.45;66.76
66373;SHT30;53168;51.146;17.120;2023-07-30T17:10:41;21.49;66.93
66373;SHT30;53168;51.146;17.120;2023-07-30T17:13:19;21.41;66.97
66373;SHT30;53168;51.146;17.120;2023-07-30T17:15:55;21.33;67.10
66373;SHT30;53168;51.146;17.120;2023-07-30T17:18:26;21.29;67.20
66373;SHT30;53168;51.146;17.120;2023-07-30T17:21:36;21.23;67.67
66373;SHT30;53168;51.146;17.120;2023-07-30T17:24:42;21.17;67.87
66373;SHT30;53168;51.146;17.120;2023-07-30T17:27:12;21.07;68.00
66373;SHT30;53168;51.146;17.120;2023-07-30T17:31:19;20.92;68.03
66373;SHT30;53168;51.146;17.120;2023-07-30T17:33:53;20.84;68.09
66373;SHT30;53168;51.146;17.120;2023-07-30T17:36:25;20.79;68.30
66373;SHT30;53168;51.146;17.120;2023-07-30T17:38:55;20.72;68.26
66373;SHT30;53168;51.146;17.120;2023-07-30T17:41:24;20.68;68.26
66373;SHT30;53168;51.146;17.120;2023-07-30T17:43:55;20.65;68.16
66373;SHT30;53168;51.146;17.120;2023-07-30T17:47:31;20.59;68.42
66373;SHT30;53168;51.146;17.120;2023-07-30T17:50:24;20.56;68.35
66373;SHT30;53168;51.146;17.120;2023-07-30T17:52:53;20.51;68.29
66373;SHT30;53168;51.146;17.120;2023-07-30T17:55:23;20.48;68.27
66373;SHT30;53168;51.146;17.120;2023-07-30T17:57:53;20.45;68.18
66373;SHT30;53168;51.146;17.120;2023-07-30T18:00:23;20.41;68.37
66373;SHT30;53168;51.146;17.120;2023-07-30T18:02:53;20.38;68.57
66373;SHT30;53168;51.146;17.120;2023-07-30T18:05:24;20.36;68.81
66373;SHT30;53168;51.146;17.120;2023-07-30T18:08:09;20.35;68.82
66373;SHT30;53168;51.146;17.120;2023-07-30T18:10:39;20.35;68.85
66373;SHT30;53168;51.146;17.120;2023-07-30T18:13:08;20.33;68.83
66373;SHT30;53168;51.146;17.120;2023-07-30T18:15:38;20.29;68.91
66373;SHT30;53168;51.146;17.120;2023-07-30T18:18:08;20.25;68.98
66373;SHT30;53168;51.146;17.120;2023-07-30T18:20:41;20.22;69.03
66373;SHT30;53168;51.146;17.120;2023-07-30T18:23:11;20.18;69.14
66373;SHT30;53168;51.146;17.120;2023-07-30T18:25:41;20.13;69.36
66373;SHT30;53168;51.146;17.120;2023-07-30T18:28:12;20.08;69.49
66373;SHT30;53168;51.146;17.120;2023-07-30T18:30:41;20.00;69.58
66373;SHT30;53168;51.146;17.120;2023-07-30T18:33:13;19.94;69.80
66373;SHT30;53168;51.146;17.120;2023-07-30T18:35:43;19.87;70.00